No: Datum Uhrzeit Land Meereshöhe Ort Wetter Info Temp/°C Luftfeuchte Luftdruck Wind Regen Schnee
9287 >22.11.2017 >13:58:15 257 m Aachen Sonne + 13,1° 65% 1012.7 hPa 10,2 km/h 0,0 mm 0 cm
9286 >22.11.2017 >09:17:36 253 m Kopstal bedeckt + 7,8° 88% 1012.2 hPa 4,7 km/h 0,0 mm 0 cm
9285 >22.11.2017 >07:59:06 357 m Fichtenberg Regen + 1,6° 96% 1013.8 hPa 3,6 km/h 1,4 mm 0 cm
9284 >21.11.2017 >20:04:43 310 m Capellen Regen + 6,6° 94% 1015.4 hPa 4,7 km/h 1,8 mm 0 cm
9283 >21.11.2017 >06:43:41 566 m Brienz bedeckt + 4° 85% 1020.0 hPa 1,8 km/h 0,0 mm 0 cm
9282 >20.11.2017 >20:05:39 257 m Aachen Regen + 6,8° 96% 1012.0 hPa 11,8 km/h 0,2 mm 0 cm
9281 >20.11.2017 >06:38:59 310 m Capellen bewölkt + 0,2° 97% 1023.3 hPa 0,0 km/h 0,0 mm 0 cm
9280 >19.11.2017 >10:21:25 230 m Hoesdorf bewölkt-Sonne + 4,8° 87% 1019.9 hPa 3,7 km/h 0,0 mm 0 cm
9279 >19.11.2017 >08:07:53 310 m Capellen Glätte + 1,8° 88% 1020.6 hPa 6,5 km/h 0,0 mm 0 cm
9278 >18.11.2017 >19:16:56 180 m Ayl bedeckt + 3,8° 90% 1020.0 hPa 20,0 km/h 0,7 mm 0 cm
9277 >18.11.2017 >10:45:10 324 m Windhof bedeckt + 0,9° 98% 1024.8 hPa 1,2 km/h 0,0 mm 0 cm
9276 >18.11.2017 >07:56:34 298 m Mamer bedeckt - 3,2° 98% 1024.8 hPa 1,2 km/h 0,0 mm 0 cm
9275 >18.11.2017 >06:57:54 310 m Capellen sternenklar - 2,7° 96% 1024.3 hPa 0,0 km/h 0,0 mm 0 cm
9274 >17.11.2017 >02:51:33 257 m Aachen bewölkt + 7,9° 95% 1023.8 hPa 1,1 km/h 0,0 mm 0 cm
9273 >17.11.2017 >01:19:55 180 m Ayl bewölkt + 1,8° 46% 1027.0 hPa 6,0 km/h 0,0 mm 0 cm
9272 >16.11.2017 >18:10:29 310 m Capellen bedeckt + 2,7° 96% 1025.3 hPa 6,5 km/h 0,0 mm 0 cm
9271 >16.11.2017 >09:20:23 257 m Aachen bedeckt + 6,4° 89% 1023.3 hPa 1,6 km/h 0,0 mm 0 cm
9270 >16.11.2017 >05:24:31 180 m Ayl Nebel + 1,1° 99% 1024.8 hPa 5,7 km/h 0,0 mm 0 cm
9269 >15.11.2017 >16:58:35 355 m Grub Sonne + 1,3° 81% 1027.1 hPa 0,7 km/h 0,2 mm 0 cm
9268 >15.11.2017 >05:51:06 494 m Büren NW sternenklar - 1,7° 81% 1023.8 hPa 0,2 km/h 0,0 mm 0 cm
9267 >14.11.2017 >10:36:35 257 m Aachen bedeckt + 5,1° 90% 1024.7 hPa 4,7 km/h 0,0 mm 0 cm
9266 >14.11.2017 >08:47:40 2 m Cadzand bedeckt + 4,8° 98% 1024.0 hPa 23,0 km/h 0,0 mm 0 cm
9265 >13.11.2017 >20:04:12 310 m Capellen bewölkt + 3,4° 91% 1022.8 hPa 0,0 km/h 0,0 mm 0 cm
9264 >13.11.2017 >11:27:37 228 m Uettingen Regen + 5,2° 94% 1014.6 hPa 14,4 km/h 1,4 mm 0 cm
9263 >13.11.2017 >10:36:31 525 m Ottnang/Hausruck bedeckt + 2,3° 91% 1003.4 hPa 3,4 km/h 0,0 mm 0 cm

Admin